sensor_id;sensor_type;location;lat;lon;timestamp;P1;durP1;ratioP1;P2;durP2;ratioP2
4517;SDS011;2271;49.464;11.070;2023-12-14T00:01:17;4.87;;;3.53;;
4517;SDS011;2271;49.464;11.070;2023-12-14T00:03:43;3.80;;;3.50;;
4517;SDS011;2271;49.464;11.070;2023-12-14T00:06:12;5.17;;;3.97;;
4517;SDS011;2271;49.464;11.070;2023-12-14T00:08:38;5.53;;;3.90;;
4517;SDS011;2271;49.464;11.070;2023-12-14T00:11:05;5.30;;;3.23;;
4517;SDS011;2271;49.464;11.070;2023-12-14T00:13:35;4.23;;;3.83;;
4517;SDS011;2271;49.464;11.070;2023-12-14T00:16:01;8.07;;;3.73;;
4517;SDS011;2271;49.464;11.070;2023-12-14T00:18:27;4.03;;;3.40;;
4517;SDS011;2271;49.464;11.070;2023-12-14T00:20:53;7.30;;;4.07;;
4517;SDS011;2271;49.464;11.070;2023-12-14T00:23:19;4.13;;;3.70;;
4517;SDS011;2271;49.464;11.070;2023-12-14T00:25:45;7.80;;;3.93;;
4517;SDS011;2271;49.464;11.070;2023-12-14T00:28:11;4.97;;;3.43;;
4517;SDS011;2271;49.464;11.070;2023-12-14T00:30:37;7.63;;;4.27;;
4517;SDS011;2271;49.464;11.070;2023-12-14T00:33:02;6.00;;;3.73;;
4517;SDS011;2271;49.464;11.070;2023-12-14T00:35:28;7.30;;;4.57;;
4517;SDS011;2271;49.464;11.070;2023-12-14T00:37:53;6.67;;;3.90;;
4517;SDS011;2271;49.464;11.070;2023-12-14T00:40:19;6.20;;;4.03;;
4517;SDS011;2271;49.464;11.070;2023-12-14T00:42:45;6.83;;;3.97;;
4517;SDS011;2271;49.464;11.070;2023-12-14T00:45:10;8.33;;;4.30;;
4517;SDS011;2271;49.464;11.070;2023-12-14T00:47:36;7.40;;;4.80;;
4517;SDS011;2271;49.464;11.070;2023-12-14T00:50:01;6.03;;;3.50;;
4517;SDS011;2271;49.464;11.070;2023-12-14T00:52:27;5.47;;;4.27;;
4517;SDS011;2271;49.464;11.070;2023-12-14T00:54:53;6.83;;;4.53;;
4517;SDS011;2271;49.464;11.070;2023-12-14T00:57:18;4.30;;;3.90;;
4517;SDS011;2271;49.464;11.070;2023-12-14T00:59:44;4.93;;;4.43;;
4517;SDS011;2271;49.464;11.070;2023-12-14T01:02:10;5.40;;;4.60;;
4517;SDS011;2271;49.464;11.070;2023-12-14T01:04:35;4.67;;;4.00;;
4517;SDS011;2271;49.464;11.070;2023-12-14T01:07:02;5.67;;;4.20;;
4517;SDS011;2271;49.464;11.070;2023-12-14T01:09:28;5.57;;;4.30;;
4517;SDS011;2271;49.464;11.070;2023-12-14T01:11:54;5.87;;;3.63;;
4517;SDS011;2271;49.464;11.070;2023-12-14T01:14:19;5.83;;;4.17;;
4517;SDS011;2271;49.464;11.070;2023-12-14T01:16:45;5.13;;;4.07;;
4517;SDS011;2271;49.464;11.070;2023-12-14T01:19:11;6.00;;;3.77;;
4517;SDS011;2271;49.464;11.070;2023-12-14T01:21:36;5.27;;;4.03;;
4517;SDS011;2271;49.464;11.070;2023-12-14T01:24:02;4.90;;;4.40;;
4517;SDS011;2271;49.464;11.070;2023-12-14T01:26:28;9.77;;;4.73;;
4517;SDS011;2271;49.464;11.070;2023-12-14T01:28:53;5.73;;;4.70;;
4517;SDS011;2271;49.464;11.070;2023-12-14T01:31:19;8.53;;;4.70;;
4517;SDS011;2271;49.464;11.070;2023-12-14T01:33:48;5.13;;;4.63;;
4517;SDS011;2271;49.464;11.070;2023-12-14T01:36:19;8.90;;;4.90;;
4517;SDS011;2271;49.464;11.070;2023-12-14T01:38:46;7.10;;;4.60;;
4517;SDS011;2271;49.464;11.070;2023-12-14T01:41:12;5.33;;;4.63;;
4517;SDS011;2271;49.464;11.070;2023-12-14T01:43:37;7.17;;;5.33;;
4517;SDS011;2271;49.464;11.070;2023-12-14T01:46:03;7.13;;;4.57;;
4517;SDS011;2271;49.464;11.070;2023-12-14T01:48:28;6.83;;;5.13;;
4517;SDS011;2271;49.464;11.070;2023-12-14T01:50:54;10.20;;;5.83;;
4517;SDS011;2271;49.464;11.070;2023-12-14T01:53:20;8.47;;;5.37;;
4517;SDS011;2271;49.464;11.070;2023-12-14T01:55:46;10.30;;;5.57;;
4517;SDS011;2271;49.464;11.070;2023-12-14T01:58:12;8.70;;;5.53;;
4517;SDS011;2271;49.464;11.070;2023-12-14T02:03:28;5.40;;;4.90;;
4517;SDS011;2271;49.464;11.070;2023-12-14T02:05:54;9.67;;;6.03;;
4517;SDS011;2271;49.464;11.070;2023-12-14T02:08:19;6.90;;;5.43;;
4517;SDS011;2271;49.464;11.070;2023-12-14T02:10:45;10.03;;;5.70;;
4517;SDS011;2271;49.464;11.070;2023-12-14T02:13:10;7.70;;;5.50;;
4517;SDS011;2271;49.464;11.070;2023-12-14T02:15:36;8.87;;;6.07;;
4517;SDS011;2271;49.464;11.070;2023-12-14T02:18:01;7.77;;;5.70;;
4517;SDS011;2271;49.464;11.070;2023-12-14T02:20:27;9.00;;;5.83;;
4517;SDS011;2271;49.464;11.070;2023-12-14T02:22:53;5.93;;;5.37;;
4517;SDS011;2271;49.464;11.070;2023-12-14T02:25:20;8.43;;;5.93;;
4517;SDS011;2271;49.464;11.070;2023-12-14T02:27:47;10.47;;;6.43;;
4517;SDS011;2271;49.464;11.070;2023-12-14T02:30:14;8.60;;;5.87;;
4517;SDS011;2271;49.464;11.070;2023-12-14T02:32:40;8.20;;;6.17;;
4517;SDS011;2271;49.464;11.070;2023-12-14T02:35:06;8.50;;;6.00;;
4517;SDS011;2271;49.464;11.070;2023-12-14T02:37:32;12.57;;;6.40;;
4517;SDS011;2271;49.464;11.070;2023-12-14T02:39:59;7.80;;;6.20;;
4517;SDS011;2271;49.464;11.070;2023-12-14T02:42:25;11.40;;;7.57;;
4517;SDS011;2271;49.464;11.070;2023-12-14T02:44:52;8.17;;;5.80;;
4517;SDS011;2271;49.464;11.070;2023-12-14T02:47:18;10.43;;;7.20;;
4517;SDS011;2271;49.464;11.070;2023-12-14T02:49:44;8.10;;;6.13;;
4517;SDS011;2271;49.464;11.070;2023-12-14T02:52:10;8.43;;;5.30;;
4517;SDS011;2271;49.464;11.070;2023-12-14T02:54:38;9.83;;;6.57;;
4517;SDS011;2271;49.464;11.070;2023-12-14T02:57:04;11.47;;;6.80;;
4517;SDS011;2271;49.464;11.070;2023-12-14T02:59:30;9.20;;;6.60;;
4517;SDS011;2271;49.464;11.070;2023-12-14T03:01:56;9.10;;;6.40;;
4517;SDS011;2271;49.464;11.070;2023-12-14T03:04:22;9.23;;;6.37;;
4517;SDS011;2271;49.464;11.070;2023-12-14T03:06:47;10.80;;;6.97;;
4517;SDS011;2271;49.464;11.070;2023-12-14T03:09:13;7.80;;;6.97;;
4517;SDS011;2271;49.464;11.070;2023-12-14T03:11:39;11.80;;;7.23;;
4517;SDS011;2271;49.464;11.070;2023-12-14T03:14:05;10.97;;;7.10;;
4517;SDS011;2271;49.464;11.070;2023-12-14T03:16:30;9.60;;;6.97;;
4517;SDS011;2271;49.464;11.070;2023-12-14T03:18:56;11.67;;;7.97;;
4517;SDS011;2271;49.464;11.070;2023-12-14T03:21:22;10.20;;;7.87;;
4517;SDS011;2271;49.464;11.070;2023-12-14T03:23:48;11.07;;;7.43;;
4517;SDS011;2271;49.464;11.070;2023-12-14T03:26:14;11.10;;;7.27;;
4517;SDS011;2271;49.464;11.070;2023-12-14T03:28:40;10.30;;;7.50;;
4517;SDS011;2271;49.464;11.070;2023-12-14T03:31:05;9.97;;;7.83;;
4517;SDS011;2271;49.464;11.070;2023-12-14T03:33:31;8.57;;;7.17;;
4517;SDS011;2271;49.464;11.070;2023-12-14T03:35:57;12.37;;;7.60;;
4517;SDS011;2271;49.464;11.070;2023-12-14T03:38:23;10.93;;;7.00;;
4517;SDS011;2271;49.464;11.070;2023-12-14T03:40:48;9.07;;;7.77;;
4517;SDS011;2271;49.464;11.070;2023-12-14T03:43:14;8.70;;;7.10;;
4517;SDS011;2271;49.464;11.070;2023-12-14T03:45:39;11.77;;;7.07;;
4517;SDS011;2271;49.464;11.070;2023-12-14T03:48:05;10.53;;;7.20;;
4517;SDS011;2271;49.464;11.070;2023-12-14T03:50:31;11.40;;;7.30;;
4517;SDS011;2271;49.464;11.070;2023-12-14T03:52:57;8.30;;;6.57;;
4517;SDS011;2271;49.464;11.070;2023-12-14T03:55:23;9.60;;;7.30;;
4517;SDS011;2271;49.464;11.070;2023-12-14T03:57:49;10.57;;;7.57;;
4517;SDS011;2271;49.464;11.070;2023-12-14T04:00:15;10.10;;;7.40;;
4517;SDS011;2271;49.464;11.070;2023-12-14T04:02:41;9.13;;;7.07;;
4517;SDS011;2271;49.464;11.070;2023-12-14T04:05:07;14.20;;;7.50;;
4517;SDS011;2271;49.464;11.070;2023-12-14T04:07:35;11.57;;;7.77;;
4517;SDS011;2271;49.464;11.070;2023-12-14T04:10:01;10.60;;;7.73;;
4517;SDS011;2271;49.464;11.070;2023-12-14T04:12:27;11.47;;;7.93;;
4517;SDS011;2271;49.464;11.070;2023-12-14T04:14:52;10.17;;;7.43;;
4517;SDS011;2271;49.464;11.070;2023-12-14T04:17:18;9.30;;;7.60;;
4517;SDS011;2271;49.464;11.070;2023-12-14T04:19:43;10.40;;;7.70;;
4517;SDS011;2271;49.464;11.070;2023-12-14T04:22:09;13.77;;;8.17;;
4517;SDS011;2271;49.464;11.070;2023-12-14T04:24:34;11.17;;;7.67;;
4517;SDS011;2271;49.464;11.070;2023-12-14T04:27:00;10.00;;;7.60;;
4517;SDS011;2271;49.464;11.070;2023-12-14T04:29:26;10.83;;;7.70;;
4517;SDS011;2271;49.464;11.070;2023-12-14T04:31:51;10.77;;;8.37;;
4517;SDS011;2271;49.464;11.070;2023-12-14T04:34:18;17.13;;;8.30;;
4517;SDS011;2271;49.464;11.070;2023-12-14T04:36:47;9.43;;;7.50;;
4517;SDS011;2271;49.464;11.070;2023-12-14T04:39:13;12.60;;;8.23;;
4517;SDS011;2271;49.464;11.070;2023-12-14T04:41:39;12.13;;;8.20;;
4517;SDS011;2271;49.464;11.070;2023-12-14T04:44:04;11.03;;;8.27;;
4517;SDS011;2271;49.464;11.070;2023-12-14T04:46:30;14.03;;;8.40;;
4517;SDS011;2271;49.464;11.070;2023-12-14T04:48:56;15.23;;;8.77;;
4517;SDS011;2271;49.464;11.070;2023-12-14T04:51:21;13.40;;;8.57;;
4517;SDS011;2271;49.464;11.070;2023-12-14T04:53:47;13.27;;;8.50;;
4517;SDS011;2271;49.464;11.070;2023-12-14T04:56:12;12.97;;;8.93;;
4517;SDS011;2271;49.464;11.070;2023-12-14T04:58:39;11.23;;;8.60;;
4517;SDS011;2271;49.464;11.070;2023-12-14T05:01:05;11.03;;;8.47;;
4517;SDS011;2271;49.464;11.070;2023-12-14T05:03:31;14.23;;;8.73;;
4517;SDS011;2271;49.464;11.070;2023-12-14T05:05:58;27.00;;;6.47;;
4517;SDS011;2271;49.464;11.070;2023-12-14T05:08:23;9.57;;;6.17;;
4517;SDS011;2271;49.464;11.070;2023-12-14T05:10:49;10.67;;;7.20;;
4517;SDS011;2271;49.464;11.070;2023-12-14T05:13:15;12.23;;;7.73;;
4517;SDS011;2271;49.464;11.070;2023-12-14T05:15:41;11.67;;;6.50;;
4517;SDS011;2271;49.464;11.070;2023-12-14T05:18:06;11.20;;;8.00;;
4517;SDS011;2271;49.464;11.070;2023-12-14T05:20:32;10.90;;;7.10;;
4517;SDS011;2271;49.464;11.070;2023-12-14T05:22:59;7.83;;;7.03;;
4517;SDS011;2271;49.464;11.070;2023-12-14T05:25:24;10.87;;;7.93;;
4517;SDS011;2271;49.464;11.070;2023-12-14T05:27:50;9.13;;;7.50;;
4517;SDS011;2271;49.464;11.070;2023-12-14T05:30:16;17.17;;;8.03;;
4517;SDS011;2271;49.464;11.070;2023-12-14T05:32:42;10.73;;;7.53;;
4517;SDS011;2271;49.464;11.070;2023-12-14T05:35:08;15.13;;;8.37;;
4517;SDS011;2271;49.464;11.070;2023-12-14T05:37:34;12.30;;;7.47;;
4517;SDS011;2271;49.464;11.070;2023-12-14T05:40:01;12.87;;;8.23;;
4517;SDS011;2271;49.464;11.070;2023-12-14T05:42:27;10.77;;;8.37;;
4517;SDS011;2271;49.464;11.070;2023-12-14T05:44:53;13.50;;;8.30;;
4517;SDS011;2271;49.464;11.070;2023-12-14T05:47:19;12.90;;;8.87;;
4517;SDS011;2271;49.464;11.070;2023-12-14T05:49:44;12.30;;;8.60;;
4517;SDS011;2271;49.464;11.070;2023-12-14T05:52:10;13.50;;;8.90;;
4517;SDS011;2271;49.464;11.070;2023-12-14T05:54:37;15.03;;;8.60;;
4517;SDS011;2271;49.464;11.070;2023-12-14T05:57:05;11.80;;;8.87;;
4517;SDS011;2271;49.464;11.070;2023-12-14T05:59:31;12.03;;;8.23;;
4517;SDS011;2271;49.464;11.070;2023-12-14T06:01:57;13.17;;;8.87;;
4517;SDS011;2271;49.464;11.070;2023-12-14T06:04:23;13.33;;;9.13;;
4517;SDS011;2271;49.464;11.070;2023-12-14T06:06:49;15.10;;;9.93;;
4517;SDS011;2271;49.464;11.070;2023-12-14T06:09:15;15.53;;;9.33;;
4517;SDS011;2271;49.464;11.070;2023-12-14T06:11:42;15.77;;;8.60;;
4517;SDS011;2271;49.464;11.070;2023-12-14T06:14:08;11.77;;;8.47;;
4517;SDS011;2271;49.464;11.070;2023-12-14T06:16:34;14.70;;;9.30;;
4517;SDS011;2271;49.464;11.070;2023-12-14T06:18:59;12.03;;;8.03;;
4517;SDS011;2271;49.464;11.070;2023-12-14T06:21:25;15.83;;;9.03;;
4517;SDS011;2271;49.464;11.070;2023-12-14T06:23:53;14.23;;;10.03;;
4517;SDS011;2271;49.464;11.070;2023-12-14T06:26:19;13.47;;;9.17;;
4517;SDS011;2271;49.464;11.070;2023-12-14T06:28:45;20.00;;;9.30;;
4517;SDS011;2271;49.464;11.070;2023-12-14T06:31:14;14.70;;;9.10;;
4517;SDS011;2271;49.464;11.070;2023-12-14T06:33:40;13.17;;;9.40;;
4517;SDS011;2271;49.464;11.070;2023-12-14T06:36:06;14.40;;;9.77;;
4517;SDS011;2271;49.464;11.070;2023-12-14T06:38:37;19.90;;;10.03;;
4517;SDS011;2271;49.464;11.070;2023-12-14T06:41:04;12.77;;;9.27;;
4517;SDS011;2271;49.464;11.070;2023-12-14T06:43:30;16.63;;;9.23;;
4517;SDS011;2271;49.464;11.070;2023-12-14T06:45:55;12.30;;;8.60;;
4517;SDS011;2271;49.464;11.070;2023-12-14T06:48:21;13.87;;;9.63;;
4517;SDS011;2271;49.464;11.070;2023-12-14T06:50:46;13.57;;;9.43;;
4517;SDS011;2271;49.464;11.070;2023-12-14T06:53:12;14.80;;;9.53;;
4517;SDS011;2271;49.464;11.070;2023-12-14T06:55:39;15.37;;;9.80;;
4517;SDS011;2271;49.464;11.070;2023-12-14T06:58:05;16.37;;;10.00;;
4517;SDS011;2271;49.464;11.070;2023-12-14T07:00:36;12.93;;;9.67;;
4517;SDS011;2271;49.464;11.070;2023-12-14T07:03:02;15.67;;;10.77;;
4517;SDS011;2271;49.464;11.070;2023-12-14T07:05:28;13.70;;;10.00;;
4517;SDS011;2271;49.464;11.070;2023-12-14T07:07:54;18.90;;;10.33;;
4517;SDS011;2271;49.464;11.070;2023-12-14T07:10:21;19.13;;;10.87;;
4517;SDS011;2271;49.464;11.070;2023-12-14T07:12:47;16.20;;;10.53;;
4517;SDS011;2271;49.464;11.070;2023-12-14T07:15:12;15.70;;;10.33;;
4517;SDS011;2271;49.464;11.070;2023-12-14T07:17:38;19.50;;;11.47;;
4517;SDS011;2271;49.464;11.070;2023-12-14T07:20:05;19.30;;;11.63;;
4517;SDS011;2271;49.464;11.070;2023-12-14T07:22:31;18.53;;;10.53;;
4517;SDS011;2271;49.464;11.070;2023-12-14T07:24:57;26.70;;;10.63;;
4517;SDS011;2271;49.464;11.070;2023-12-14T07:27:22;16.50;;;10.43;;
4517;SDS011;2271;49.464;11.070;2023-12-14T07:29:48;15.17;;;10.37;;
4517;SDS011;2271;49.464;11.070;2023-12-14T07:32:14;19.50;;;11.43;;
4517;SDS011;2271;49.464;11.070;2023-12-14T07:34:46;20.63;;;11.73;;
4517;SDS011;2271;49.464;11.070;2023-12-14T07:37:12;18.57;;;12.43;;
4517;SDS011;2271;49.464;11.070;2023-12-14T07:39:38;20.77;;;12.17;;
4517;SDS011;2271;49.464;11.070;2023-12-14T07:42:04;17.47;;;11.13;;
4517;SDS011;2271;49.464;11.070;2023-12-14T07:44:30;19.50;;;12.67;;
4517;SDS011;2271;49.464;11.070;2023-12-14T07:46:56;16.17;;;11.27;;
4517;SDS011;2271;49.464;11.070;2023-12-14T07:49:24;13.63;;;9.97;;
4517;SDS011;2271;49.464;11.070;2023-12-14T07:51:50;15.13;;;10.60;;
4517;SDS011;2271;49.464;11.070;2023-12-14T07:54:16;17.87;;;10.73;;
4517;SDS011;2271;49.464;11.070;2023-12-14T07:56:43;16.93;;;10.47;;
4517;SDS011;2271;49.464;11.070;2023-12-14T07:59:09;19.53;;;11.00;;
4517;SDS011;2271;49.464;11.070;2023-12-14T08:01:35;14.30;;;9.57;;
4517;SDS011;2271;49.464;11.070;2023-12-14T08:04:00;13.80;;;10.27;;
4517;SDS011;2271;49.464;11.070;2023-12-14T08:06:26;18.13;;;10.40;;
4517;SDS011;2271;49.464;11.070;2023-12-14T08:08:52;16.23;;;10.47;;
4517;SDS011;2271;49.464;11.070;2023-12-14T08:11:18;20.77;;;12.97;;
4517;SDS011;2271;49.464;11.070;2023-12-14T08:13:43;16.73;;;11.03;;
4517;SDS011;2271;49.464;11.070;2023-12-14T08:16:09;16.90;;;10.23;;
4517;SDS011;2271;49.464;11.070;2023-12-14T08:18:36;20.17;;;11.67;;
4517;SDS011;2271;49.464;11.070;2023-12-14T08:21:02;18.53;;;10.60;;
4517;SDS011;2271;49.464;11.070;2023-12-14T08:23:28;15.77;;;10.17;;
4517;SDS011;2271;49.464;11.070;2023-12-14T08:25:55;22.10;;;11.97;;
4517;SDS011;2271;49.464;11.070;2023-12-14T08:28:24;17.57;;;10.83;;
4517;SDS011;2271;49.464;11.070;2023-12-14T08:30:50;17.40;;;10.60;;
4517;SDS011;2271;49.464;11.070;2023-12-14T08:33:16;19.80;;;11.60;;
4517;SDS011;2271;49.464;11.070;2023-12-14T08:35:42;14.97;;;9.93;;
4517;SDS011;2271;49.464;11.070;2023-12-14T08:38:08;17.20;;;11.07;;
4517;SDS011;2271;49.464;11.070;2023-12-14T08:40:34;20.93;;;12.17;;
4517;SDS011;2271;49.464;11.070;2023-12-14T08:42:59;21.60;;;11.27;;
4517;SDS011;2271;49.464;11.070;2023-12-14T08:45:25;16.27;;;10.57;;
4517;SDS011;2271;49.464;11.070;2023-12-14T08:47:51;18.87;;;10.50;;
4517;SDS011;2271;49.464;11.070;2023-12-14T08:50:16;20.17;;;11.77;;
4517;SDS011;2271;49.464;11.070;2023-12-14T08:52:43;16.23;;;10.20;;
4517;SDS011;2271;49.464;11.070;2023-12-14T08:55:08;21.53;;;13.10;;
4517;SDS011;2271;49.464;11.070;2023-12-14T08:57:34;16.83;;;11.67;;
4517;SDS011;2271;49.464;11.070;2023-12-14T09:00:00;17.30;;;11.00;;
4517;SDS011;2271;49.464;11.070;2023-12-14T09:02:29;16.73;;;11.57;;
4517;SDS011;2271;49.464;11.070;2023-12-14T09:04:55;16.00;;;10.53;;
4517;SDS011;2271;49.464;11.070;2023-12-14T09:07:21;16.60;;;10.53;;
4517;SDS011;2271;49.464;11.070;2023-12-14T09:09:46;16.00;;;10.27;;
4517;SDS011;2271;49.464;11.070;2023-12-14T09:12:12;17.17;;;10.43;;
4517;SDS011;2271;49.464;11.070;2023-12-14T09:14:38;14.93;;;11.23;;
4517;SDS011;2271;49.464;11.070;2023-12-14T09:17:03;13.97;;;10.77;;
4517;SDS011;2271;49.464;11.070;2023-12-14T09:19:29;14.23;;;10.27;;
4517;SDS011;2271;49.464;11.070;2023-12-14T09:21:56;15.43;;;9.33;;
4517;SDS011;2271;49.464;11.070;2023-12-14T09:24:22;13.50;;;9.90;;
4517;SDS011;2271;49.464;11.070;2023-12-14T09:26:48;18.90;;;10.63;;
4517;SDS011;2271;49.464;11.070;2023-12-14T09:29:13;15.13;;;10.03;;
4517;SDS011;2271;49.464;11.070;2023-12-14T09:31:43;17.90;;;9.80;;
4517;SDS011;2271;49.464;11.070;2023-12-14T09:34:11;14.17;;;9.77;;
4517;SDS011;2271;49.464;11.070;2023-12-14T09:36:37;17.23;;;11.63;;
4517;SDS011;2271;49.464;11.070;2023-12-14T09:39:03;13.43;;;9.83;;
4517;SDS011;2271;49.464;11.070;2023-12-14T09:41:30;13.63;;;8.97;;
4517;SDS011;2271;49.464;11.070;2023-12-14T09:43:56;15.10;;;9.53;;
4517;SDS011;2271;49.464;11.070;2023-12-14T09:46:21;13.43;;;9.77;;
4517;SDS011;2271;49.464;11.070;2023-12-14T09:48:50;18.93;;;9.33;;
4517;SDS011;2271;49.464;11.070;2023-12-14T09:51:16;14.73;;;10.10;;
4517;SDS011;2271;49.464;11.070;2023-12-14T09:53:42;14.90;;;9.60;;
4517;SDS011;2271;49.464;11.070;2023-12-14T09:56:08;16.00;;;9.47;;
4517;SDS011;2271;49.464;11.070;2023-12-14T09:58:34;15.60;;;9.60;;
4517;SDS011;2271;49.464;11.070;2023-12-14T10:00:59;12.53;;;8.67;;
4517;SDS011;2271;49.464;11.070;2023-12-14T10:03:29;13.80;;;8.77;;
4517;SDS011;2271;49.464;11.070;2023-12-14T10:05:58;14.27;;;9.20;;
4517;SDS011;2271;49.464;11.070;2023-12-14T10:08:26;14.80;;;8.97;;
4517;SDS011;2271;49.464;11.070;2023-12-14T10:10:53;16.50;;;10.63;;
4517;SDS011;2271;49.464;11.070;2023-12-14T10:13:21;16.33;;;10.10;;
4517;SDS011;2271;49.464;11.070;2023-12-14T10:16:01;17.47;;;10.47;;
4517;SDS011;2271;49.464;11.070;2023-12-14T10:18:27;16.57;;;10.10;;
4517;SDS011;2271;49.464;11.070;2023-12-14T10:20:53;18.20;;;10.23;;
4517;SDS011;2271;49.464;11.070;2023-12-14T10:23:19;19.63;;;9.53;;
4517;SDS011;2271;49.464;11.070;2023-12-14T10:25:45;14.47;;;9.37;;
4517;SDS011;2271;49.464;11.070;2023-12-14T10:28:12;16.53;;;10.20;;
4517;SDS011;2271;49.464;11.070;2023-12-14T10:30:38;16.00;;;10.00;;
4517;SDS011;2271;49.464;11.070;2023-12-14T10:33:04;13.00;;;8.57;;
4517;SDS011;2271;49.464;11.070;2023-12-14T10:35:30;14.50;;;8.77;;
4517;SDS011;2271;49.464;11.070;2023-12-14T10:37:56;11.70;;;8.27;;
4517;SDS011;2271;49.464;11.070;2023-12-14T10:40:27;14.83;;;9.33;;
4517;SDS011;2271;49.464;11.070;2023-12-14T10:42:53;15.63;;;8.90;;
4517;SDS011;2271;49.464;11.070;2023-12-14T10:45:22;17.20;;;10.37;;
4517;SDS011;2271;49.464;11.070;2023-12-14T10:47:53;13.23;;;8.70;;
4517;SDS011;2271;49.464;11.070;2023-12-14T10:50:21;18.37;;;8.73;;
4517;SDS011;2271;49.464;11.070;2023-12-14T10:52:48;14.43;;;8.97;;
4517;SDS011;2271;49.464;11.070;2023-12-14T10:58:07;20.57;;;8.70;;
4517;SDS011;2271;49.464;11.070;2023-12-14T11:00:33;15.63;;;8.93;;
4517;SDS011;2271;49.464;11.070;2023-12-14T11:02:59;13.77;;;8.20;;
4517;SDS011;2271;49.464;11.070;2023-12-14T11:05:26;18.17;;;9.47;;
4517;SDS011;2271;49.464;11.070;2023-12-14T11:07:56;16.73;;;8.90;;
4517;SDS011;2271;49.464;11.070;2023-12-14T11:13:08;13.63;;;8.77;;
4517;SDS011;2271;49.464;11.070;2023-12-14T11:15:40;16.47;;;9.33;;
4517;SDS011;2271;49.464;11.070;2023-12-14T11:23:16;16.27;;;9.37;;
4517;SDS011;2271;49.464;11.070;2023-12-14T11:25:57;12.43;;;7.70;;
4517;SDS011;2271;49.464;11.070;2023-12-14T11:28:34;16.97;;;8.33;;
4517;SDS011;2271;49.464;11.070;2023-12-14T11:31:01;19.03;;;7.87;;
4517;SDS011;2271;49.464;11.070;2023-12-14T11:33:31;11.07;;;7.20;;
4517;SDS011;2271;49.464;11.070;2023-12-14T11:36:01;9.23;;;7.37;;
4517;SDS011;2271;49.464;11.070;2023-12-14T11:38:28;13.47;;;7.50;;
4517;SDS011;2271;49.464;11.070;2023-12-14T11:40:55;13.17;;;7.47;;
4517;SDS011;2271;49.464;11.070;2023-12-14T11:43:21;9.03;;;6.77;;
4517;SDS011;2271;49.464;11.070;2023-12-14T11:45:48;13.30;;;7.33;;
4517;SDS011;2271;49.464;11.070;2023-12-14T11:48:14;11.73;;;7.27;;
4517;SDS011;2271;49.464;11.070;2023-12-14T11:50:40;9.70;;;7.23;;
4517;SDS011;2271;49.464;11.070;2023-12-14T11:53:08;13.13;;;7.63;;
4517;SDS011;2271;49.464;11.070;2023-12-14T11:55:35;15.00;;;7.80;;
4517;SDS011;2271;49.464;11.070;2023-12-14T11:58:02;11.20;;;7.67;;
4517;SDS011;2271;49.464;11.070;2023-12-14T12:00:29;10.80;;;7.47;;
4517;SDS011;2271;49.464;11.070;2023-12-14T12:05:41;12.63;;;7.67;;
4517;SDS011;2271;49.464;11.070;2023-12-14T12:08:08;13.73;;;6.93;;
4517;SDS011;2271;49.464;11.070;2023-12-14T12:10:35;10.30;;;7.00;;
4517;SDS011;2271;49.464;11.070;2023-12-14T12:13:02;14.50;;;7.23;;
4517;SDS011;2271;49.464;11.070;2023-12-14T12:15:30;10.20;;;6.53;;
4517;SDS011;2271;49.464;11.070;2023-12-14T12:17:57;8.60;;;7.13;;
4517;SDS011;2271;49.464;11.070;2023-12-14T12:20:23;10.70;;;6.87;;
4517;SDS011;2271;49.464;11.070;2023-12-14T12:22:48;19.60;;;7.33;;
4517;SDS011;2271;49.464;11.070;2023-12-14T12:25:14;10.63;;;6.13;;
4517;SDS011;2271;49.464;11.070;2023-12-14T12:27:40;10.07;;;6.80;;
4517;SDS011;2271;49.464;11.070;2023-12-14T12:30:06;9.87;;;6.60;;
4517;SDS011;2271;49.464;11.070;2023-12-14T12:32:32;8.00;;;6.43;;
4517;SDS011;2271;49.464;11.070;2023-12-14T12:34:57;15.90;;;6.23;;
4517;SDS011;2271;49.464;11.070;2023-12-14T12:37:23;14.37;;;6.90;;
4517;SDS011;2271;49.464;11.070;2023-12-14T12:39:49;10.33;;;5.93;;
4517;SDS011;2271;49.464;11.070;2023-12-14T12:42:15;13.60;;;6.10;;
4517;SDS011;2271;49.464;11.070;2023-12-14T12:44:41;11.00;;;7.20;;
4517;SDS011;2271;49.464;11.070;2023-12-14T12:47:06;12.10;;;5.90;;
4517;SDS011;2271;49.464;11.070;2023-12-14T12:49:32;10.57;;;5.83;;
4517;SDS011;2271;49.464;11.070;2023-12-14T12:51:57;8.63;;;5.53;;
4517;SDS011;2271;49.464;11.070;2023-12-14T12:54:23;14.40;;;6.03;;
4517;SDS011;2271;49.464;11.070;2023-12-14T12:56:49;8.57;;;5.47;;
4517;SDS011;2271;49.464;11.070;2023-12-14T12:59:14;12.50;;;6.17;;
4517;SDS011;2271;49.464;11.070;2023-12-14T13:01:40;12.43;;;6.33;;
4517;SDS011;2271;49.464;11.070;2023-12-14T13:04:09;12.10;;;6.97;;
4517;SDS011;2271;49.464;11.070;2023-12-14T13:06:46;11.03;;;6.90;;
4517;SDS011;2271;49.464;11.070;2023-12-14T13:09:13;13.77;;;7.70;;
4517;SDS011;2271;49.464;11.070;2023-12-14T13:11:44;13.80;;;8.03;;
4517;SDS011;2271;49.464;11.070;2023-12-14T13:14:10;11.93;;;8.07;;
4517;SDS011;2271;49.464;11.070;2023-12-14T13:16:36;14.17;;;8.47;;
4517;SDS011;2271;49.464;11.070;2023-12-14T13:19:02;13.17;;;7.33;;
4517;SDS011;2271;49.464;11.070;2023-12-14T13:21:29;13.30;;;7.83;;
4517;SDS011;2271;49.464;11.070;2023-12-14T13:23:55;11.97;;;8.13;;
4517;SDS011;2271;49.464;11.070;2023-12-14T13:26:23;11.03;;;7.60;;
4517;SDS011;2271;49.464;11.070;2023-12-14T13:28:50;11.90;;;8.10;;
4517;SDS011;2271;49.464;11.070;2023-12-14T13:31:16;15.93;;;7.50;;
4517;SDS011;2271;49.464;11.070;2023-12-14T13:33:42;15.97;;;7.87;;
4517;SDS011;2271;49.464;11.070;2023-12-14T13:36:08;12.27;;;7.50;;
4517;SDS011;2271;49.464;11.070;2023-12-14T13:38:34;11.00;;;6.80;;
4517;SDS011;2271;49.464;11.070;2023-12-14T13:41:01;12.87;;;7.53;;
4517;SDS011;2271;49.464;11.070;2023-12-14T13:43:28;12.83;;;7.83;;
4517;SDS011;2271;49.464;11.070;2023-12-14T13:45:54;11.20;;;7.30;;
4517;SDS011;2271;49.464;11.070;2023-12-14T13:48:23;12.43;;;7.77;;
4517;SDS011;2271;49.464;11.070;2023-12-14T13:50:49;9.70;;;7.27;;
4517;SDS011;2271;49.464;11.070;2023-12-14T13:53:15;11.87;;;7.80;;
4517;SDS011;2271;49.464;11.070;2023-12-14T13:55:41;13.60;;;8.10;;
4517;SDS011;2271;49.464;11.070;2023-12-14T13:58:07;10.10;;;6.97;;
4517;SDS011;2271;49.464;11.070;2023-12-14T14:00:32;9.27;;;7.13;;
4517;SDS011;2271;49.464;11.070;2023-12-14T14:02:59;11.77;;;7.20;;
4517;SDS011;2271;49.464;11.070;2023-12-14T14:05:25;10.77;;;6.33;;
4517;SDS011;2271;49.464;11.070;2023-12-14T14:07:51;8.93;;;6.40;;
4517;SDS011;2271;49.464;11.070;2023-12-14T14:10:18;14.87;;;9.63;;
4517;SDS011;2271;49.464;11.070;2023-12-14T14:12:45;9.40;;;6.20;;
4517;SDS011;2271;49.464;11.070;2023-12-14T14:15:11;9.73;;;6.27;;
4517;SDS011;2271;49.464;11.070;2023-12-14T14:17:37;8.77;;;6.00;;
4517;SDS011;2271;49.464;11.070;2023-12-14T14:20:03;7.07;;;5.57;;
4517;SDS011;2271;49.464;11.070;2023-12-14T14:22:30;5.20;;;3.97;;
4517;SDS011;2271;49.464;11.070;2023-12-14T14:24:55;6.80;;;4.10;;
4517;SDS011;2271;49.464;11.070;2023-12-14T14:27:22;7.57;;;4.03;;
4517;SDS011;2271;49.464;11.070;2023-12-14T14:29:47;5.47;;;3.90;;
4517;SDS011;2271;49.464;11.070;2023-12-14T14:32:14;7.40;;;4.20;;
4517;SDS011;2271;49.464;11.070;2023-12-14T14:34:40;5.97;;;3.63;;
4517;SDS011;2271;49.464;11.070;2023-12-14T14:37:06;5.43;;;3.73;;
4517;SDS011;2271;49.464;11.070;2023-12-14T14:39:31;7.37;;;4.70;;
4517;SDS011;2271;49.464;11.070;2023-12-14T14:41:57;6.43;;;4.00;;
4517;SDS011;2271;49.464;11.070;2023-12-14T14:44:23;5.47;;;4.70;;
4517;SDS011;2271;49.464;11.070;2023-12-14T14:46:50;6.73;;;5.43;;
4517;SDS011;2271;49.464;11.070;2023-12-14T14:49:16;9.90;;;6.40;;
4517;SDS011;2271;49.464;11.070;2023-12-14T14:51:43;6.43;;;4.53;;
4517;SDS011;2271;49.464;11.070;2023-12-14T14:54:08;10.00;;;5.63;;
4517;SDS011;2271;49.464;11.070;2023-12-14T14:56:34;8.57;;;4.80;;
4517;SDS011;2271;49.464;11.070;2023-12-14T14:59:00;6.33;;;4.90;;
4517;SDS011;2271;49.464;11.070;2023-12-14T15:01:26;5.67;;;4.00;;